Etusivu
METAR-TAF:

METAR-TAF

Lentoasemat :

Sylacauga, Alabama, Yhdysvallat

Leveyspiiri: 33-10-19N, Pituuspiiri: 086-18-20W, korkeus merenpinnasta: 173 m

Tämänhetkinen sää

Tämä raportti tehtiin 23 minuuttia sitten, kello 10.15 UTC
tyyntä
Lämpötila 8°C
Kosteus 81%
Ilmanpaine 1017 hPa
Näkyvyys: 16.1 km
Pilvistä 10000 ft:n korkeudessa
heikkoa sadetta

METAR: KSCD 241015Z AUTO 00000KT 10SM -RA OVC100 08/05 A3003 RMK AO2 T00750053

Aika: 04:38 (10:38 UTC)


TAF: puuttuu

Säähavainnot ja -ennusteet yli 4000 lentoasemalta (METAR- ja TAF-raportit).

Käytössä olevat sääasemat on merkitty karttaan keltaisilla ja punaisilla pisteillä.

Aseta hiiri pisteen päälle nähdäksesi sääaseman nimen.

Klikkaa sitten nähdäksesi säähavainnot ja -ennusteet.

Kartan vaihtaminen: klikkaa mustalla rastilla varustettuja vihreitä pisteitä, niin voit zoomata sisään; viivalla varustettua vihreää pistettä, niin voit zoomata ulos tai vihreitä nuolia, niin pääset viereisille kartoille.


METAR-TAF: